Time;durP1;ratioP1;P1;durP2;ratioP2;P2;SDS_P1;SDS_P2;PMS_P1;PMS_P2;Temp;Humidity;BMP_temperature;BMP_pressure;BME280_temperature;BME280_humidity;BME280_pressure;Samples;Min_cycle;Max_cycle;Signal;HPM_P1;HPM_P2
2022/06/25 00:01:37;;;;;;;19.02;13.72;;;;;;;16.31;100.00;96449.03;1674330;86;21061;-75
2022/06/25 00:04:04;;;;;;;19.87;14.50;;;;;;;16.28;100.00;96454.50;1674470;85;21076;-75
2022/06/25 00:06:32;;;;;;;20.37;15.13;;;;;;;16.27;100.00;96466.53;1674311;86;21093;-76
2022/06/25 00:08:58;;;;;;;21.70;16.23;;;;;;;16.26;100.00;96465.45;1674641;86;21527;-76
2022/06/25 00:14:11;;;;;;;22.40;16.32;;;;;;;16.22;100.00;96478.03;1708544;84;21093;-74
2022/06/25 00:16:38;;;;;;;23.65;17.32;;;;;;;16.19;100.00;96488.19;1675519;84;21104;-76
2022/06/25 00:19:06;;;;;;;21.77;16.40;;;;;;;16.16;100.00;96499.67;1674315;86;21013;-76
2022/06/25 00:21:33;;;;;;;20.68;15.13;;;;;;;16.12;100.00;96513.07;1674334;85;21531;-75
2022/06/25 00:23:59;;;;;;;23.50;14.85;;;;;;;16.08;100.00;96526.47;1674289;86;21009;-76
2022/06/25 00:26:27;;;;;;;19.05;12.75;;;;;;;16.05;100.00;96528.41;1674538;85;21013;-75
2022/06/25 00:28:54;;;;;;;19.23;12.13;;;;;;;16.02;100.00;96533.63;1674358;86;21594;-75
2022/06/25 00:31:22;;;;;;;15.83;11.03;;;;;;;15.99;100.00;96547.30;1674396;86;21097;-75
2022/06/25 00:33:48;;;;;;;16.73;11.08;;;;;;;15.98;100.00;96548.95;1674457;86;21017;-76
2022/06/25 00:36:16;;;;;;;17.05;11.57;;;;;;;15.95;100.00;96555.78;1674482;86;21041;-75
2022/06/25 00:38:42;;;;;;;15.00;10.48;;;;;;;15.91;100.00;96559.63;1674258;86;21080;-76
2022/06/25 00:41:09;;;;;;;16.42;10.95;;;;;;;15.88;100.00;96572.50;1674560;86;21011;-75
2022/06/25 00:43:40;;;;;;;14.75;9.65;;;;;;;15.85;100.00;96579.08;1674106;85;21069;-75
2022/06/25 00:46:07;;;;;;;12.35;8.15;;;;;;;15.81;100.00;96582.93;1676877;85;21013;-75
2022/06/25 00:48:34;;;;;;;11.33;7.53;;;;;;;15.81;100.00;96591.63;1674268;86;21065;-74
2022/06/25 00:51:07;;;;;;;14.25;8.88;;;;;;;15.79;100.00;96587.83;1655035;87;21053;-75
2022/06/25 00:53:34;;;;;;;15.15;9.40;;;;;;;15.78;100.00;96587.59;1674185;86;21065;-75
2022/06/25 00:56:01;;;;;;;15.85;9.53;;;;;;;15.77;100.00;96583.23;1654964;87;21108;-75
2022/06/25 00:58:32;;;;;;;14.53;8.80;;;;;;;15.77;100.00;96587.88;1674229;86;21132;-75
2022/06/25 01:01:00;;;;;;;12.70;8.88;;;;;;;15.74;100.00;96576.95;1661426;86;21037;-75
2022/06/25 01:03:27;;;;;;;12.25;8.35;;;;;;;15.72;100.00;96569.10;1674482;86;21106;-74
2022/06/25 01:05:54;;;;;;;11.45;8.33;;;;;;;15.71;100.00;96566.66;1676934;85;21033;-75
2022/06/25 01:08:21;;;;;;;18.98;10.15;;;;;;;15.68;100.00;96562.59;1674240;86;21053;-75
2022/06/25 01:10:48;;;;;;;17.60;12.47;;;;;;;15.67;100.00;96558.79;1650734;84;21029;-74
2022/06/25 01:13:15;;;;;;;19.32;13.32;;;;;;;15.67;100.00;96560.16;1708808;84;21065;-76
2022/06/25 01:15:42;;;;;;;21.30;14.23;;;;;;;15.66;100.00;96559.34;1689264;84;21443;-75
2022/06/25 01:18:09;;;;;;;18.00;12.82;;;;;;;15.65;100.00;96563.19;1627828;86;21567;-75
2022/06/25 01:20:36;;;;;;;18.55;12.63;;;;;;;15.64;100.00;96553.94;1674504;86;21053;-76
2022/06/25 01:23:03;;;;;;;19.92;11.53;;;;;;;15.64;100.00;96552.02;1674638;86;21057;-75
2022/06/25 01:25:35;;;;;;;17.45;10.88;;;;;;;15.64;100.00;96547.13;1674261;86;21531;-75
2022/06/25 01:28:04;;;;;;;12.93;9.00;;;;;;;15.63;100.00;96538.13;1674610;86;21511;-76
2022/06/25 01:30:32;;;;;;;11.68;8.10;;;;;;;15.62;100.00;96533.80;1695509;84;21582;-76
2022/06/25 01:32:59;;;;;;;11.30;7.78;;;;;;;15.62;100.00;96535.17;1674730;86;21092;-76
2022/06/25 01:35:26;;;;;;;11.10;6.53;;;;;;;15.64;100.00;96530.80;1674447;86;21076;-76
2022/06/25 01:37:53;;;;;;;11.45;6.87;;;;;;;15.62;100.00;96518.83;1674284;86;21512;-76
2022/06/25 01:40:19;;;;;;;12.63;6.75;;;;;;;15.66;100.00;96507.61;1674475;86;21045;-76
2022/06/25 01:42:58;;;;;;;11.48;6.80;;;;;;;15.68;100.00;96496.42;1674709;84;21084;-76
2022/06/25 01:45:34;;;;;;;12.33;6.72;;;;;;;15.70;100.00;96484.12;1657409;85;21036;-76
2022/06/25 01:48:06;;;;;;;12.45;7.50;;;;;;;15.74;100.00;96465.29;1647966;87;21094;-76
2022/06/25 01:50:33;;;;;;;12.93;8.00;;;;;;;15.79;100.00;96457.09;1604784;89;21109;-76
2022/06/25 01:53:00;;;;;;;11.97;8.05;;;;;;;15.84;100.00;96441.24;1568883;91;21081;-75
2022/06/25 01:55:27;;;;;;;14.78;8.50;;;;;;;15.88;100.00;96426.75;1605058;89;21058;-76
2022/06/25 01:57:54;;;;;;;14.70;8.93;;;;;;;15.92;100.00;96414.72;1568463;91;21085;-76
2022/06/25 02:00:25;;;;;;;19.12;12.25;;;;;;;15.96;100.00;96398.03;1605068;89;21504;-76
2022/06/25 02:02:54;;;;;;;24.20;17.95;;;;;;;16.00;100.00;96384.62;1568637;91;21118;-75
2022/06/25 02:08:10;;;;;;;28.77;22.80;;;;;;;16.06;100.00;96361.62;1568672;91;21133;-76
2022/06/25 02:10:37;;;;;;;29.90;23.65;;;;;;;16.06;100.00;96342.02;1605115;89;21551;-76
2022/06/25 02:13:04;;;;;;;29.10;22.87;;;;;;;16.10;100.00;96335.42;1611745;89;21051;-76
2022/06/25 02:15:32;;;;;;;28.80;20.72;;;;;;;16.12;100.00;96329.92;1610966;88;21087;-75
2022/06/25 02:18:00;;;;;;;30.60;24.10;;;;;;;16.14;100.00;96325.54;1599054;90;21092;-75
2022/06/25 02:20:27;;;;;;;32.65;26.70;;;;;;;16.16;100.00;96315.14;1619049;88;21018;-74
2022/06/25 02:22:53;;;;;;;34.58;26.60;;;;;;;16.17;100.00;96313.25;1618720;89;21105;-75
2022/06/25 02:25:22;;;;;;;36.23;27.45;;;;;;;16.16;100.00;96315.14;1618998;87;21503;-76
2022/06/25 02:27:49;;;;;;;32.80;27.90;;;;;;;16.15;100.00;96304.01;1618955;89;21061;-76
2022/06/25 02:30:15;;;;;;;34.65;27.67;;;;;;;16.14;100.00;96302.38;1618899;89;21112;-76
2022/06/25 02:32:42;;;;;;;33.60;26.50;;;;;;;16.13;100.00;96301.58;1619074;89;21085;-75
2022/06/25 02:35:10;;;;;;;34.98;26.12;;;;;;;16.13;100.00;96303.50;1619359;89;21056;-75
2022/06/25 02:37:37;;;;;;;27.85;19.62;;;;;;;16.16;100.00;96300.72;1618896;89;21057;-76
2022/06/25 02:40:06;;;;;;;25.80;15.80;;;;;;;16.19;100.00;96291.95;1619025;87;21492;-76
2022/06/25 02:42:38;;;;;;;20.30;14.13;;;;;;;16.19;100.00;96287.30;1618933;89;21101;-75
2022/06/25 02:45:08;;;;;;;17.82;11.75;;;;;;;16.19;100.00;96287.86;1620188;88;21067;-75
2022/06/25 02:47:36;;;;;;;15.18;9.18;;;;;;;16.19;100.00;96287.86;1629772;86;21073;-75
2022/06/25 02:50:06;;;;;;;17.12;9.98;;;;;;;16.19;100.00;96291.95;1667051;86;21014;-76
2022/06/25 02:52:33;;;;;;;13.10;8.68;;;;;;;16.20;100.00;96284.84;1670309;86;21017;-76
2022/06/25 02:55:00;;;;;;;14.85;8.75;;;;;;;16.20;100.00;96291.66;1670073;86;21065;-75
2022/06/25 03:00:14;;;;;;;16.10;9.40;;;;;;;16.23;100.00;96288.87;1670539;86;21026;-75
2022/06/25 03:02:43;;;;;;;13.32;8.03;;;;;;;16.24;100.00;96291.31;1670403;86;21093;-75
2022/06/25 03:05:10;;;;;;;15.20;8.65;;;;;;;16.26;100.00;96294.53;1670651;86;21045;-75
2022/06/25 03:07:37;;;;;;;15.38;8.88;;;;;;;16.28;100.00;96292.31;1670150;86;21081;-75
2022/06/25 03:10:06;;;;;;;15.55;8.30;;;;;;;16.32;100.00;96297.98;1670294;85;21085;-75
2022/06/25 03:12:34;;;;;;;13.83;8.70;;;;;;;16.31;100.00;96286.84;1675109;86;21054;-76
2022/06/25 03:15:06;;;;;;;14.00;8.78;;;;;;;16.31;100.00;96289.00;1636930;87;21096;-76
2022/06/25 03:17:33;;;;;;;12.75;8.10;;;;;;;16.31;100.00;96292.28;1614816;89;21066;-76
2022/06/25 03:20:19;;;;;;;14.15;7.97;;;;;;;16.30;100.00;96299.64;1635152;87;21143;-75
2022/06/25 03:22:48;;;;;;;15.43;8.68;;;;;;;16.29;100.00;96307.58;1611489;89;21069;-75
2022/06/25 03:25:15;;;;;;;15.75;8.68;;;;;;;16.33;100.00;96308.59;1634842;88;21050;-76
2022/06/25 03:27:42;;;;;;;14.35;8.55;;;;;;;16.39;100.00;96307.94;1615043;89;21065;-74
2022/06/25 03:30:14;;;;;;;12.82;8.03;;;;;;;16.44;100.00;96309.78;1635022;88;21124;-74
2022/06/25 03:32:41;;;;;;;14.20;8.70;;;;;;;16.48;100.00;96315.70;1614827;89;21097;-76
2022/06/25 03:35:18;;;;;;;12.60;8.03;;;;;;;16.49;100.00;96320.03;1597447;90;21088;-75
2022/06/25 03:37:47;;;;;;;13.58;8.30;;;;;;;16.48;100.00;96325.78;1594233;90;21041;-75
2022/06/25 03:40:17;;;;;;;13.38;8.20;;;;;;;16.50;100.00;96333.93;1597386;90;21035;-75
2022/06/25 03:42:44;;;;;;;12.68;8.63;;;;;;;16.57;100.00;96336.24;1597260;90;21107;-75
2022/06/25 03:45:12;;;;;;;12.13;7.80;;;;;;;16.65;100.00;96332.03;1597816;90;21075;-75
2022/06/25 03:47:40;;;;;;;15.08;8.88;;;;;;;16.74;100.00;96318.52;1598992;90;21120;-75
2022/06/25 03:50:08;;;;;;;14.10;8.90;;;;;;;16.83;100.00;96323.52;1599212;90;21068;-74
2022/06/25 03:52:35;;;;;;;14.90;8.75;;;;;;;16.93;100.00;96314.34;1598841;90;21610;-75
2022/06/25 03:55:02;;;;;;;15.30;9.03;;;;;;;17.01;100.00;96317.17;1599235;90;21103;-76
2022/06/25 03:57:31;;;;;;;18.15;9.18;;;;;;;17.08;100.00;96316.77;1598909;90;21152;-74
2022/06/25 04:00:07;;;;;;;15.58;8.93;;;;;;;17.11;100.00;96324.92;1576638;91;21050;-76
2022/06/25 04:02:42;;;;;;;14.45;9.00;;;;;;;17.14;100.00;96335.20;1572373;91;21560;-76
2022/06/25 04:05:28;;;;;;;12.88;8.18;;;;;;;17.18;100.00;96353.98;1552946;92;21095;-75
2022/06/25 04:07:57;;;;;;;13.70;8.70;;;;;;;17.23;100.00;96368.89;1572126;91;21174;-75
2022/06/25 04:10:24;;;;;;;17.85;8.43;;;;;;;17.29;100.00;96388.14;1552912;92;21047;-76
2022/06/25 04:12:51;;;;;;;14.55;8.43;;;;;;;17.36;100.00;96398.10;1634993;87;21049;-74
2022/06/25 04:15:18;;;;;;;14.75;8.08;;;;;;;17.39;100.00;96422.08;1645569;87;21403;-75
2022/06/25 04:17:45;;;;;;;13.28;8.50;;;;;;;17.39;100.00;96441.19;1640099;87;21552;-75
2022/06/25 04:20:12;;;;;;;12.43;7.80;;;;;;;17.41;100.00;96458.64;1639862;87;21098;-75
2022/06/25 04:22:40;;;;;;;10.08;7.47;;;;;;;17.44;100.00;96487.52;1639693;87;21053;-76
2022/06/25 04:25:07;;;;;;;11.65;7.80;;;;;;;17.52;100.00;96512.51;1639811;87;21088;-76
2022/06/25 04:30:19;;;;;;;12.60;8.20;;;;;;;17.81;100.00;96538.16;1640134;87;21085;-76
2022/06/25 04:32:48;;;;;;;17.60;9.43;;;;;;;17.97;100.00;96552.36;1640205;87;21061;-76
2022/06/25 04:35:17;;;;;;;13.70;8.65;;;;;;;18.07;100.00;96583.59;1608582;89;21069;-75
2022/06/25 04:37:45;;;;;;;15.70;9.15;;;;;;;18.03;100.00;96629.87;1608751;89;21089;-76
2022/06/25 04:40:13;;;;;;;15.20;9.50;;;;;;;17.97;100.00;96691.22;1608802;89;21068;-74
2022/06/25 04:42:41;;;;;;;15.72;8.68;;;;;;;17.94;100.00;96762.08;1608725;89;21053;-76
2022/06/25 04:45:08;;;;;;;17.50;9.53;;;;;;;17.92;100.00;96817.03;1605327;89;21050;-75
2022/06/25 04:47:38;;;;;;;15.30;8.93;;;;;;;17.91;100.00;96867.89;1594419;90;21106;-75
2022/06/25 04:50:16;;;;;;;15.80;9.13;;;;;;;17.97;100.00;96904.43;1633080;88;21062;-76
2022/06/25 04:52:44;;;;;;;20.57;9.75;;;;;;;18.20;100.00;96919.66;1632886;88;21102;-76
2022/06/25 04:55:12;;;;;;;26.00;10.98;;;;;;;18.47;100.00;96931.29;1633050;88;21110;-75
2022/06/25 04:57:40;;;;;;;16.67;8.95;;;;;;;18.74;100.00;96949.72;1593847;88;21673;-73
2022/06/25 05:00:19;;;;;;;19.65;9.28;;;;;;;18.94;100.00;97007.43;1577659;91;21145;-71
2022/06/25 05:02:46;;;;;;;16.70;9.73;;;;;;;19.13;100.00;97062.16;1639237;87;21055;-71
2022/06/25 05:05:14;;;;;;;15.68;8.80;;;;;;;19.40;100.00;97116.77;1639433;87;21098;-72
2022/06/25 05:07:42;;;;;;;13.32;8.73;;;;;;;19.70;100.00;97179.03;1639151;87;21110;-71
2022/06/25 05:10:09;;;;;;;14.10;8.93;;;;;;;19.94;100.00;97252.97;1639476;87;21047;-72
2022/06/25 05:15:22;;;;;;;36.73;29.72;;;;;;;20.17;100.00;97447.87;1624903;88;21526;-71
2022/06/25 05:17:49;;;;;;;20.25;12.18;;;;;;;20.38;100.00;97527.43;1625788;88;21049;-72
2022/06/25 05:20:17;;;;;;;16.95;10.60;;;;;;;20.64;100.00;97570.43;1625504;88;21065;-73
2022/06/25 05:22:44;;;;;;;21.27;14.47;;;;;;;20.79;100.00;97647.66;1625631;88;21558;-72
2022/06/25 05:25:11;;;;;;;16.65;10.72;;;;;;;20.89;100.00;97715.91;1625340;88;21104;-72
2022/06/25 05:27:39;;;;;;;19.65;12.78;;;;;;;20.88;100.00;97800.81;1610315;88;21174;-73
2022/06/25 05:30:07;;;;;;;27.87;22.58;;;;;;;20.77;100.00;97906.66;1605005;89;21075;-74
2022/06/25 05:32:35;;;;;;;53.25;42.53;;;;;;;20.77;100.00;98035.73;1622333;88;21045;-73
2022/06/25 05:35:04;;;;;;;20.72;14.43;;;;;;;20.96;100.00;98125.67;1596543;90;21551;-72
2022/06/25 05:37:30;;;;;;;16.90;11.25;;;;;;;21.24;100.00;98187.30;1640013;86;21037;-72
2022/06/25 05:39:57;;;;;;;16.45;10.00;;;;;;;21.55;100.00;98236.03;1643177;86;21042;-71
2022/06/25 05:42:24;;;;;;;24.40;18.02;;;;;;;21.90;100.00;98281.40;1659683;86;21495;-72
2022/06/25 05:44:51;;;;;;;37.40;30.62;;;;;;;22.19;100.00;98324.90;1658982;85;21057;-71
2022/06/25 05:47:18;;;;;;;57.83;47.75;;;;;;;22.49;100.00;98367.63;1647765;86;21006;-69
2022/06/25 05:49:45;;;;;;;33.13;25.62;;;;;;;22.62;100.00;98430.84;1687925;85;21030;-73
2022/06/25 05:52:12;;;;;;;24.63;15.38;;;;;;;22.80;100.00;98465.11;1687608;85;21025;-74
2022/06/25 05:54:39;;;;;;;16.77;10.35;;;;;;;23.06;100.00;98489.96;1688062;85;21046;-73
2022/06/25 05:57:07;;;;;;;19.07;10.82;;;;;;;23.17;100.00;98587.17;1687860;85;21026;-73
2022/06/25 05:59:34;;;;;;;15.05;9.80;;;;;;;23.07;100.00;98666.66;1688114;85;21531;-71
2022/06/25 06:02:01;;;;;;;16.35;9.68;;;;;;;22.93;100.00;98696.77;1647491;87;21105;-73
2022/06/25 06:04:28;;;;;;;18.85;10.03;;;;;;;22.93;100.00;98707.78;1647576;87;21040;-74
2022/06/25 06:06:59;;;;;;;17.35;9.80;;;;;;;23.02;100.00;98727.31;1687565;85;21124;-74
2022/06/25 06:09:32;;;;;;;17.60;9.15;;;;;;;23.13;100.00;98722.58;1688140;84;21097;-74
2022/06/25 06:11:59;;;;;;;15.93;9.88;;;;;;;23.37;100.00;98726.80;1665924;85;21037;-74
2022/06/25 06:14:26;;;;;;;14.83;8.95;;;;;;;23.62;100.00;98745.64;1654294;87;21096;-72
2022/06/25 06:16:53;;;;;;;13.60;9.00;;;;;;;23.93;100.00;98747.61;1658223;87;21119;-72
2022/06/25 06:19:20;;;;;;;15.30;9.43;;;;;;;24.22;100.00;98771.09;1656007;85;21051;-73
2022/06/25 06:21:47;;;;;;;15.43;8.85;;;;;;;24.55;100.00;98799.48;1638223;88;21101;-73
2022/06/25 06:24:14;;;;;;;13.88;8.88;;;;;;;24.75;100.00;98848.17;1654722;87;21055;-71
2022/06/25 06:26:40;;;;;;;17.37;9.83;;;;;;;24.79;100.00;98897.06;1659075;86;21071;-72
2022/06/25 06:29:08;;;;;;;15.10;9.20;;;;;;;24.74;100.00;98935.80;1658788;86;21422;-71
2022/06/25 06:31:35;;;;;;;19.17;10.08;;;;;;;24.59;100.00;98974.06;1654087;85;21115;-72
2022/06/25 06:34:03;;;;;;;19.48;10.50;;;;;;;24.32;100.00;99011.83;1654638;86;21084;-73
2022/06/25 06:36:31;;;;;;;14.87;9.33;;;;;;;24.11;100.00;99011.14;1659697;86;21024;-73
2022/06/25 06:38:57;;;;;;;12.58;8.63;;;;;;;24.14;100.00;98997.33;1626529;88;21588;-73
2022/06/25 06:41:24;;;;;;;11.53;8.00;;;;;;;24.28;100.00;99012.14;1660227;86;21028;-73
2022/06/25 06:43:51;;;;;;;19.42;9.30;;;;;;;24.42;100.00;99025.58;1637779;88;21070;-72
2022/06/25 06:46:19;;;;;;;13.53;7.72;;;;;;;24.58;100.00;99021.36;1654965;86;21028;-72
2022/06/25 06:48:46;;;;;;;16.60;9.25;;;;;;;24.72;100.00;99060.19;1637602;88;21093;-75
2022/06/25 06:51:12;;;;;;;15.60;10.00;;;;;;;24.78;100.00;99068.16;1654903;87;21067;-72
2022/06/25 06:53:39;;;;;;;16.23;9.85;;;;;;;24.93;100.00;99056.17;1659673;86;21550;-76
2022/06/25 06:56:06;;;;;;;13.98;9.70;;;;;;;25.27;100.00;99050.33;1638168;88;21022;-74
2022/06/25 06:58:33;;;;;;;12.47;7.85;;;;;;;25.64;100.00;99046.89;1654517;87;21509;-73
2022/06/25 07:01:00;;;;;;;10.15;7.53;;;;;;;25.83;100.00;99096.75;1638331;88;21567;-72
2022/06/25 07:03:28;;;;;;;14.25;8.48;;;;;;;26.10;100.00;99100.34;1654806;87;21517;-75
2022/06/25 07:05:55;;;;;;;10.68;7.37;;;;;;;26.33;100.00;99141.60;1638824;87;21047;-76
2022/06/25 07:08:22;;;;;;;11.75;7.30;;;;;;;26.36;100.00;99187.84;1647674;87;21076;-71
2022/06/25 07:10:49;;;;;;;13.45;7.28;;;;;;;26.26;100.00;99261.67;1648840;85;21073;-73
2022/06/25 07:13:16;;;;;;;11.12;7.22;;;;;;;26.33;100.00;99430.37;1682495;85;21072;-73
2022/06/25 07:15:43;;;;;;;12.18;7.85;;;;;;;26.40;100.00;99522.86;1662637;85;21059;-73
2022/06/25 07:18:10;;;;;;;13.68;7.72;;;;;;;26.28;100.00;99577.28;1630447;88;21026;-73
2022/06/25 07:20:37;;;;;;;10.05;6.40;;;;;;;26.19;100.00;99583.13;1647320;87;21522;-75
2022/06/25 07:23:07;;;;;;;13.88;7.25;;;;;;;26.09;100.00;99603.42;1654766;85;21531;-72
2022/06/25 07:25:34;;;;;;;12.13;6.65;;;;;;;26.13;100.00;99590.64;1591333;89;21081;-71
2022/06/25 07:28:04;;;;;;;14.90;7.78;;;;;;;26.39;100.00;99581.63;1654023;87;21091;-73
2022/06/25 07:30:31;;;;;;;10.58;6.70;;;;;;;26.57;100.00;99603.67;1619127;89;21053;-73
2022/06/25 07:32:58;;;;;;;12.55;6.67;;;;;;;26.59;100.00;99611.70;1654106;87;21510;-75
2022/06/25 07:35:25;;;;;;;10.50;6.83;;;;;;;26.70;100.00;99629.41;1619014;89;21232;-73
2022/06/25 07:37:52;;;;;;;11.60;7.80;;;;;;;26.95;100.00;99618.39;1653890;87;21107;-76
2022/06/25 07:40:21;;;;;;;13.30;7.95;;;;;;;27.18;100.00;99631.52;1630709;88;21098;-77
2022/06/25 07:42:47;;;;;;;11.53;7.83;;;;;;;27.31;100.00;99650.86;1648131;85;21064;-75
2022/06/25 07:45:14;;;;;;;12.53;7.70;;;;;;;27.35;100.00;99649.14;1655074;87;21052;-73
2022/06/25 07:47:41;;;;;;;12.20;8.48;;;;;;;27.57;100.00;99639.48;1631002;87;21608;-74
2022/06/25 07:52:54;;;;;;;12.07;8.28;;;;;;;28.17;100.00;99667.73;1609669;89;21094;-73
2022/06/25 07:55:20;;;;;;;15.50;9.70;;;;;;;28.15;100.00;99678.86;1632700;88;21025;-72
2022/06/25 07:57:47;;;;;;;16.27;9.10;;;;;;;28.03;100.00;99667.62;1619488;89;21060;-72
2022/06/25 08:00:15;;;;;;;17.00;9.00;;;;;;;27.74;100.00;99666.81;1619395;89;21024;-72
2022/06/25 08:02:41;;;;;;;17.73;8.68;;;;;;;27.54;100.00;99667.86;1619475;89;21075;-74
2022/06/25 08:05:08;;;;;;;15.50;9.15;;;;;;;27.27;100.00;99664.49;1619389;89;21055;-73
2022/06/25 08:07:36;;;;;;;12.55;8.08;;;;;;;27.07;100.00;99669.63;1619779;89;21203;-74
2022/06/25 08:10:04;;;;;;;16.85;8.43;;;;;;;26.96;100.00;99663.06;1637190;86;21045;-73
2022/06/25 08:12:31;;;;;;;13.65;7.90;;;;;;;26.87;100.00;99665.05;1674238;85;21089;-73
2022/06/25 08:14:59;;;;;;;12.95;7.20;;;;;;;26.61;100.00;99677.40;1674386;85;20981;-73
2022/06/25 08:17:26;;;;;;;10.63;7.15;;;;;;;26.26;100.00;99681.47;1655259;87;21546;-73
2022/06/25 08:19:52;;;;;;;13.98;9.00;;;;;;;26.04;100.00;99680.44;1655466;85;21048;-72
2022/06/25 08:22:19;;;;;;;28.55;19.92;;;;;;;25.91;100.00;99679.07;1654973;85;21527;-72
2022/06/25 08:24:46;;;;;;;18.30;12.13;;;;;;;25.89;100.00;99668.02;1659275;85;21155;-75
2022/06/25 08:27:13;;;;;;;56.85;48.70;;;;;;;25.92;100.00;99672.44;1654667;87;21077;-71
2022/06/25 08:29:40;;;;;;;15.25;9.95;;;;;;;25.97;100.00;99670.78;1646806;87;21053;-74
2022/06/25 08:32:07;;;;;;;13.18;7.70;;;;;;;26.05;100.00;99673.80;1687265;84;20977;-74
2022/06/25 08:34:33;;;;;;;13.93;8.80;;;;;;;26.15;100.00;99660.45;1686069;85;21088;-72
2022/06/25 08:37:02;;;;;;;10.58;8.10;;;;;;;26.28;100.00;99650.14;1685651;85;21052;-74
2022/06/25 08:39:29;;;;;;;11.33;7.58;;;;;;;26.40;100.00;99642.03;1685466;85;21140;-76
2022/06/25 08:41:56;;;;;;;9.93;6.65;;;;;;;26.57;100.00;99647.22;1686186;85;20993;-74
2022/06/25 08:44:23;;;;;;;9.93;7.10;;;;;;;26.75;100.00;99647.94;1686358;85;21574;-74
2022/06/25 08:46:50;;;;;;;10.30;6.85;;;;;;;27.06;100.00;99644.38;1685439;85;21088;-74
2022/06/25 08:49:17;;;;;;;10.75;6.97;;;;;;;27.50;100.00;99645.41;1658552;85;21033;-73
2022/06/25 08:51:45;;;;;;;12.95;7.40;;;;;;;27.96;100.00;99660.74;1659841;85;21057;-74
2022/06/25 08:54:11;;;;;;;10.78;6.85;;;;;;;28.09;100.00;99678.10;1647261;85;21128;-74
2022/06/25 08:56:38;;;;;;;20.62;13.65;;;;;;;27.93;100.00;99674.67;1647375;87;21038;-75
2022/06/25 08:59:06;;;;;;;25.88;18.73;;;;;;;27.97;100.00;99667.39;1687734;85;21074;-74
2022/06/25 09:01:33;;;;;;;16.87;11.35;;;;;;;28.10;100.00;99676.99;1687806;85;21233;-75
2022/06/25 09:04:01;;;;;;;13.13;7.67;;;;;;;28.07;100.00;99684.52;1687250;85;21089;-77
2022/06/25 09:06:28;;;;;;;14.30;7.70;;;;;;;27.85;100.00;99691.95;1687597;85;21073;-75
2022/06/25 09:09:13;;;;;;;10.68;8.00;;;;;;;27.67;100.00;99692.14;1647092;87;21097;-73
2022/06/25 09:11:55;;;;;;;14.95;8.70;;;;;;;27.69;100.00;99680.75;1661052;85;20965;-74
2022/06/25 09:14:27;;;;;;;12.78;8.03;;;;;;;27.68;100.00;99674.38;1683230;85;21037;-72
2022/06/25 09:17:06;;;;;;;14.98;8.70;;;;;;;27.62;100.00;99682.47;1668844;86;21021;-74
2022/06/25 09:19:40;;;;;;;23.62;17.05;;;;;;;27.42;100.00;99691.84;1649879;87;21552;-73
2022/06/25 09:22:12;;;;;;;13.15;8.23;;;;;;;27.13;100.00;99686.22;1649548;87;21090;-72
2022/06/25 09:24:51;;;;;;;14.13;7.62;;;;;;;27.02;100.00;99679.38;1649463;86;21077;-73
2022/06/25 09:27:20;;;;;;;12.85;8.00;;;;;;;27.05;100.00;99686.28;1650064;87;21070;-73
2022/06/25 09:29:49;;;;;;;11.45;7.45;;;;;;;27.10;100.00;99673.77;1650095;87;21019;-75
2022/06/25 09:32:17;;;;;;;11.53;6.80;;;;;;;27.02;100.00;99689.09;1650315;87;20979;-74
2022/06/25 09:34:44;;;;;;;13.00;7.05;;;;;;;27.05;100.00;99684.33;1649671;87;21133;-73
2022/06/25 09:37:21;;;;;;;10.13;6.95;;;;;;;27.19;100.00;99698.38;1648986;87;21010;-71
2022/06/25 09:39:48;;;;;;;12.70;7.17;;;;;;;27.32;100.00;99691.92;1649863;87;21062;-71
2022/06/25 09:42:30;;;;;;;12.33;7.08;;;;;;;27.43;100.00;99686.00;1649333;87;21105;-72
2022/06/25 09:45:10;;;;;;;17.27;9.30;;;;;;;27.68;100.00;99673.55;1649669;87;21026;-71
2022/06/25 09:47:42;;;;;;;14.18;9.08;;;;;;;27.91;100.00;99683.05;1657907;86;21105;-75
2022/06/25 09:50:17;;;;;;;26.68;19.52;;;;;;;27.84;100.00;99683.37;1594061;90;21414;-72
2022/06/25 09:52:56;;;;;;;21.87;15.85;;;;;;;28.05;100.00;99672.03;1593600;90;21671;-73
2022/06/25 09:55:30;;;;;;;20.37;14.40;;;;;;;28.45;100.00;99662.91;1571565;91;21576;-73
2022/06/25 09:58:01;;;;;;;136.20;121.55;;;;;;;28.86;100.00;99668.75;1555533;92;21109;-72
2022/06/25 10:00:30;;;;;;;62.03;55.60;;;;;;;29.09;100.00;99671.16;1555947;92;21079;-73
2022/06/25 10:02:58;;;;;;;20.88;14.00;;;;;;;29.18;100.00;99671.87;1555567;92;21607;-73
2022/06/25 10:05:38;;;;;;;18.30;11.83;;;;;;;29.28;100.00;99677.27;1557390;92;21133;-71
2022/06/25 10:08:09;;;;;;;18.92;13.40;;;;;;;29.13;100.00;99687.50;1541797;93;21111;-71
2022/06/25 10:10:45;;;;;;;20.62;13.00;;;;;;;28.74;100.00;99683.10;1525685;94;21736;-74
2022/06/25 10:13:13;;;;;;;16.25;10.18;;;;;;;28.41;100.00;99676.02;1464747;98;21131;-76
2022/06/25 10:15:39;;;;;;;13.95;8.98;;;;;;;28.03;100.00;99680.69;1464788;97;21676;-75
2022/06/25 10:18:09;;;;;;;14.47;9.05;;;;;;;28.03;100.00;99666.23;1458894;98;21128;-77
2022/06/25 10:20:40;;;;;;;19.37;13.65;;;;;;;28.38;100.00;99658.56;1459428;98;21105;-75
2022/06/25 10:23:09;;;;;;;16.80;10.25;;;;;;;28.88;100.00;99662.85;1444602;99;21107;-77
2022/06/25 10:25:36;;;;;;;16.00;8.95;;;;;;;28.89;100.00;99675.07;1444511;99;21142;-75
2022/06/25 10:28:08;;;;;;;13.95;9.50;;;;;;;28.68;100.00;99675.94;1444569;99;21114;-77
2022/06/25 10:30:45;;;;;;;19.52;10.78;;;;;;;28.69;100.00;99659.53;1444724;99;21142;-77
2022/06/25 10:33:15;;;;;;;26.27;20.23;;;;;;;28.87;100.00;99666.20;1444827;99;21136;-78
2022/06/25 10:35:42;;;;;;;36.85;32.50;;;;;;;28.75;100.00;99668.05;1446751;99;21126;-83
2022/06/25 10:38:18;;;;;;;15.23;9.90;;;;;;;28.61;100.00;99674.67;1445917;99;21140;-80
2022/06/25 10:40:52;;;;;;;12.58;9.20;;;;;;;28.90;100.00;99677.31;1428830;100;21702;-76
2022/06/25 10:43:45;;;;;;;14.53;8.50;;;;;;;29.29;100.00;99667.80;1428899;100;21074;-75
2022/06/25 10:46:36;;;;;;;17.45;11.60;;;;;;;29.90;100.00;99672.81;1424931;100;21183;-76
2022/06/25 10:49:10;;;;;;;68.37;61.73;;;;;;;30.51;100.00;99679.10;1406587;99;21183;-74
2022/06/25 10:51:47;;;;;;;17.77;12.63;;;;;;;30.92;100.00;99678.19;1419989;100;21584;-75
2022/06/25 10:54:28;;;;;;;18.17;10.48;;;;;;;31.21;100.00;99668.53;1415030;101;21150;-74
2022/06/25 10:56:58;;;;;;;14.55;9.10;;;;;;;31.29;100.00;99680.89;1465516;98;21118;-74
2022/06/25 10:59:45;;;;;;;12.33;7.60;;;;;;;30.83;100.00;99687.84;1464838;98;21123;-75
2022/06/25 11:02:10;;;;;;;12.53;7.60;;;;;;;30.58;100.00;99665.55;1463718;98;21715;-73
2022/06/25 11:04:39;;;;;;;12.15;7.20;;;;;;;30.46;100.00;99677.82;1472856;96;21093;-74
2022/06/25 11:09:57;;;;;;;10.32;6.22;;;;;;;30.06;100.00;99678.91;1460568;98;21149;-74
2022/06/25 11:12:28;;;;;;;8.15;5.45;;;;;;;29.93;100.00;99679.17;1477905;97;21181;-74
2022/06/25 11:15:07;;;;;;;11.25;6.25;;;;;;;29.62;100.00;99692.82;1478982;97;21077;-73
2022/06/25 11:17:34;;;;;;;13.28;5.80;;;;;;;29.39;100.00;99689.88;1426955;101;21136;-75
2022/06/25 11:20:06;;;;;;;9.60;6.15;;;;;;;29.10;100.00;99692.28;1426893;101;21148;-74
2022/06/25 11:22:33;;;;;;;7.92;6.03;;;;;;;29.29;100.00;99673.37;1383981;104;21171;-74
2022/06/25 11:30:31;;;;;;;9.58;5.85;;;;;;;30.91;100.00;99679.28;1383954;102;21592;-74
2022/06/25 11:32:58;;;;;;;7.97;4.72;;;;;;;31.17;100.00;99680.91;1351771;106;21168;-75
2022/06/25 11:35:40;;;;;;;9.05;4.97;;;;;;;31.19;100.00;99691.77;1359091;106;21092;-74
2022/06/25 11:38:16;;;;;;;7.65;3.50;;;;;;;31.11;100.00;99677.16;1378264;102;21156;-74
2022/06/25 11:40:44;;;;;;;4.90;3.37;;;;;;;31.33;98.48;99689.73;1398199;103;21080;-74
2022/06/25 11:43:12;;;;;;;5.45;3.80;;;;;;;30.97;93.39;99692.02;1398124;103;21108;-74
2022/06/25 11:45:59;;;;;;;6.97;4.05;;;;;;;30.73;98.56;99685.29;1367346;104;21632;-75
2022/06/25 11:48:31;;;;;;;5.45;3.83;;;;;;;30.75;100.00;99686.38;1398023;103;21123;-74